Flight Track Log - Related Links

Times and Time Zones

All times are in EDT time to prevent confusion due to time zone crossing. See the AWE997 flight status page for this flight to view local times or setup timezone preferences in your user account.

Time Position Orientation Groundspeed Altitude Reporting Facility
EDT Latitude Longitude Course Direction KTS MPH feet Rate Location/Type
Sun 11:05:39 AM 41.9167 -87.8833 85° East 204 235 3,100  Level Chicago TRACON
Sun 11:06:33 AM 41.9167 -87.8000 90° East 248 285 4,800 667 Climbing Chicago TRACON
Sun 11:07:00 AM 41.9551 -87.4221 97° East  Level FlightAware Approximate
Sun 11:08:00 AM 41.9427 -87.2634 95° East  Level FlightAware Approximate
Sun 11:08:30 AM 41.9225 -87.6303 87° East 262 302 5,000  Level Chicago Center
Sun 11:09:00 AM 41.9333 -87.1045 90° East  Level FlightAware Approximate
Sun 11:09:31 AM 41.9261 -87.5289 87° East 268 308 6,500  Level Chicago Center
Sun 11:10:00 AM 41.9333 -86.9450 90° East  Level FlightAware Approximate
Sun 11:10:33 AM 41.9300 -87.4231 87° East 282 325 9,400  Level Chicago Center
Sun 11:11:00 AM 41.9385 -86.7897 85° East  Level FlightAware Approximate
Sun 11:11:34 AM 41.9372 -87.2953 86° East 286 329 12,500  Level Chicago Center
Sun 11:12:36 AM 41.9431 -87.1772 86° East 308 354 13,800 1,500 Climbing Chicago Center
Sun 11:13:38 AM 41.9483 -87.0397 87° East 356 410 15,600 1,902 Climbing Chicago Center
Sun 11:14:39 AM 41.9486 -86.8972 90° East 377 434 17,700 1,951 Climbing Chicago Center
Sun 11:15:41 AM 41.9511 -86.7533 89° East 386 444 19,600 1,805 Climbing Chicago Center
Sun 11:16:42 AM 41.9514 -86.6022 90° East 395 455 21,400 1,610 Climbing Chicago Center
Sun 11:17:44 AM 41.9531 -86.4519 89° East 403 464 22,900 774 Climbing Chicago Center
Sun 11:18:46 AM 41.9553 -86.3008 89° East 403 464 23,000 629 Climbing Chicago Center
Sun 11:19:48 AM 41.9497 -86.1464 93° East 414 476 24,200 1,366 Climbing Chicago Center
Sun 11:20:49 AM 41.9319 -85.9592 97° East 421 484 25,800 1,317 Climbing Chicago Center
Sun 11:21:51 AM 41.9169 -85.7972 97° East 432 497 26,900 1,065 Climbing Chicago Center
Sun 11:22:53 AM 41.9011 -85.6336 97° East 441 507 28,000 1,024 Climbing Chicago Center
Sun 11:23:54 AM 41.8853 -85.4650 97° East 451 519 29,000 927 Climbing Chicago Center
Sun 11:24:56 AM 41.8683 -85.2944 98° East 455 524 29,900 1,024 Climbing Chicago Center
Sun 11:25:57 AM 41.8536 -85.1194 96° East 453 521 31,100 1,190 Climbing Cleveland Center
Sun 11:26:57 AM 41.8347 -84.9564 99° East 453 521 32,300 1,200 Climbing Cleveland Center
Sun 11:27:57 AM 41.8161 -84.7878 98° East 453 521 33,500 850 Climbing Cleveland Center
Sun 11:28:57 AM 41.8011 -84.6253 97° East 446 513 34,000 700 Climbing Cleveland Center
Sun 11:29:57 AM 41.7819 -84.4569 99° East 446 513 34,900 750 Climbing Cleveland Center
Sun 11:30:57 AM 41.7792 -84.2842 91° East 451 519 35,500 793 Climbing Cleveland Center
Sun 11:31:58 AM 41.7744 -84.1028 92° East 446 513 36,500 750 Climbing Cleveland Center
Sun 11:32:57 AM 41.7733 -83.9383 90° East 446 513 37,000 252 Climbing Cleveland Center
Sun 11:33:57 AM 41.7717 -83.7711 91° East 446 513 37,000  Level Cleveland Center
Sun 11:34:57 AM 41.7681 -83.5983 92° East 446 513 37,000  Level Cleveland Center
Sun 11:35:57 AM 41.7578 -83.4336 95° East 446 513 37,000  Level Cleveland Center
Sun 11:36:57 AM 41.7431 -83.2631 97° East 446 513 37,000  Level Cleveland Center
Sun 11:37:57 AM 41.7261 -83.0956 98° East 446 513 37,000  Level Cleveland Center
Sun 11:38:57 AM 41.7067 -82.9306 99° East 451 519 37,000  Level Cleveland Center
Sun 11:39:57 AM 41.6850 -82.7603 100° East 451 519 37,000  Level Cleveland Center
Sun 11:40:57 AM 41.6417 -82.6225 113° Southeast 446 513 37,000  Level Cleveland Center
Sun 11:41:57 AM 41.5942 -82.4739 113° Southeast 440 506 37,000  Level Cleveland Center
Sun 11:42:57 AM 41.5444 -82.3200 113° Southeast 449 517 37,000  Level Cleveland Center
Sun 11:43:57 AM 41.4944 -82.1717 114° Southeast 443 510 37,000  Level Cleveland Center
Sun 11:44:57 AM 41.4444 -82.0208 114° Southeast 443 510 37,000  Level Cleveland Center
Sun 11:45:58 AM 41.3900 -81.8564 114° Southeast 443 510 37,000  Level Cleveland Center
Sun 11:46:57 AM 41.3456 -81.7172 113° Southeast 451 519 37,000  Level Cleveland Center
Sun 11:47:57 AM 41.2950 -81.5642 114° Southeast 451 519 37,000  Level Cleveland Center
Sun 11:48:57 AM 41.2439 -81.4144 114° Southeast 445 512 37,000  Level Cleveland Center
Sun 11:49:57 AM 41.1908 -81.2675 116° Southeast 445 512 37,000  Level Cleveland Center
Sun 11:50:57 AM 41.1375 -81.1125 115° Southeast 445 512 37,000  Level Cleveland Center
Sun 11:51:57 AM 41.0900 -80.9633 113° Southeast 445 512 37,000  Level Cleveland Center
Sun 11:52:57 AM 41.0364 -80.8117 115° Southeast 445 512 37,000  Level Cleveland Center
Sun 11:53:57 AM 40.9864 -80.6656 114° Southeast 445 512 37,000  Level Cleveland Center
Sun 11:54:57 AM 40.9322 -80.5117 115° Southeast 450 518 37,000  Level Cleveland Center
Sun 11:55:57 AM 40.8758 -80.3553 115° Southeast 456 525 37,000  Level Cleveland Center
Sun 11:56:57 AM 40.8150 -80.1853 115° Southeast 456 525 37,000  Level Cleveland Center
Sun 11:57:57 AM 40.7600 -80.0322 115° Southeast 462 532 37,000  Level Cleveland Center
Sun 11:58:57 AM 40.7092 -79.8900 115° Southeast 468 539 37,000  Level Cleveland Center
Sun 11:59:57 AM 40.6539 -79.7375 115° Southeast 463 533 37,000  Level Cleveland Center
Sun 12:00:57 PM 40.5964 -79.5822 116° Southeast 463 533 37,000  Level Cleveland Center
Sun 12:01:57 PM 40.5614 -79.4133 105° East 469 540 37,000  Level Cleveland Center
Sun 12:02:57 PM 40.5261 -79.2256 104° East 475 547 37,000 -250 Level Cleveland Center
Sun 12:03:57 PM 40.4989 -79.0514 102° East 482 555 36,500 -700 Descending Cleveland Center
Sun 12:04:57 PM 40.4692 -78.8772 103° East 482 555 35,600 -900 Descending Cleveland Center
Sun 12:05:57 PM 40.4419 -78.7225 103° East 493 567 34,700 -1,140 Descending Cleveland Center
Sun 12:06:58 PM 40.4139 -78.5461 102° East 487 560 33,300 -2,150 Descending Cleveland Center
Sun 12:07:57 PM 40.3856 -78.3725 102° East 487 560 30,400 -2,485 Descending Cleveland Center
Sun 12:10:16 PM 40.3133 -77.9631 103° East 475 547 25,100 -1,791 Descending New York Center
Sun 12:11:18 PM 40.3025 -77.7958 95° East 469 540 24,400 -850 Descending New York Center
Sun 12:12:16 PM 40.2856 -77.6228 97° East 469 540 23,400 -958 Descending New York Center
Sun 12:13:17 PM 40.2642 -77.4519 99° East 474 545 22,500 -934 Descending New York Center
Sun 12:14:18 PM 40.2444 -77.2814 99° East 469 540 21,500 -942 Descending New York Center
Sun 12:15:18 PM 40.2233 -77.1353 101° East 464 534 20,600 -915 Descending New York Center
Sun 12:16:16 PM 40.2047 -76.9731 98° East 457 526 19,700 -1,160 Descending New York Center
Sun 12:17:17 PM 40.1878 -76.8167 98° East 443 510 18,300 -1,230 Descending New York Center
Sun 12:18:18 PM 40.1669 -76.6519 99° East 428 493 17,200 -1,082 Descending New York Center
Sun 12:19:19 PM 40.1472 -76.5036 100° East 409 471 16,100 -1,068 Descending New York Center
Sun 12:20:16 PM 40.1306 -76.3744 100° East 387 445 15,100 -1,179 Descending New York Center
Sun 12:21:16 PM 40.1192 -76.2622 98° East 352 405 13,800 -1,289 Descending New York Center
Sun 12:22:17 PM 40.1100 -76.1419 96° East 344 396 12,500 -1,537 Descending New York Center
Sun 12:23:17 PM 40.1028 -76.0247 95° East 306 352 10,700 -1,190 Descending New York Center
Sun 12:24:18 PM 40.0950 -75.9158 95° East 295 339 10,100 -857 Descending New York Center
Sun 12:25:16 PM 40.0864 -75.8256 97° East 295 339 9,000 -1,169 Descending New York Center
Sun 12:26:16 PM 40.0786 -75.7136 95° East 285 328 7,800 -1,190 Descending New York Center
Sun 12:27:17 PM 40.0742 -75.6239 94° East 275 316 6,600 -843 Descending New York Center
Sun 12:28:17 PM 40.0700 -75.5178 93° East 275 316 6,100 -250 Descending New York Center
Sun 12:29:17 PM 40.0633 -75.4250 95° East 275 316 6,100  Level New York Center
Sun 12:30:18 PM 40.0589 -75.3297 93° East 256 295 6,100  Level New York Center
Sun 12:31:18 PM 40.0497 -75.2425 98° East 240 276 6,100  Level New York Center
Sun 12:32:19 PM 40.0339 -75.1628 105° East 230 265 6,100 -458 Level New York Center
Sun 12:33:16 PM 40.0178 -75.0939 107° East 206 237 5,200 -986 Descending New York Center
Sun 12:33:32 PM 40.0167 -75.0667 93° East 184 212 4,900 -1,183 Descending Philadelphia TRACON
Sun 12:34:27 PM 40.0000 -75.0167 114° Southeast 191 220 3,800 -675 Descending Philadelphia TRACON
Sun 12:36:21 PM 39.9167 -75.0167 180° South 186 214 3,000 -517 Descending Philadelphia TRACON
Sun 12:37:21 PM 39.9000 -75.0833 252° West 187 215 2,300 -700 Descending Philadelphia TRACON

Login

Don't have an account? Register now (free) for customized features, flight alerts, and more!